createdAt,value
2017-04-06T00:00:03.515Z,27.05
2017-04-06T00:00:22.865Z,27.07
2017-04-06T00:00:42.250Z,26.99
2017-04-06T00:01:01.627Z,27.02
2017-04-06T00:01:20.952Z,27.09
2017-04-06T00:01:40.400Z,26.97
2017-04-06T00:01:59.742Z,26.89
2017-04-06T00:02:18.029Z,26.87
2017-04-06T00:02:37.349Z,26.92
2017-04-06T00:02:56.696Z,27.01
2017-04-06T00:03:16.010Z,26.95
2017-04-06T00:03:35.327Z,26.89
2017-04-06T00:03:54.692Z,26.97
2017-04-06T00:04:13.988Z,26.97
2017-04-06T00:04:33.297Z,26.98
2017-04-06T00:04:52.625Z,27.02
2017-04-06T00:05:12.024Z,27.01
2017-04-06T00:05:31.352Z,27.04
2017-04-06T00:05:50.690Z,27.04
2017-04-06T00:06:10.021Z,26.98
2017-04-06T00:06:28.812Z,27.13
2017-04-06T00:06:47.106Z,27.02
2017-04-06T00:07:05.932Z,27.02
2017-04-06T00:07:25.296Z,26.98
2017-04-06T00:07:44.588Z,26.97
2017-04-06T00:08:03.916Z,27.12
2017-04-06T00:08:22.712Z,26.98
2017-04-06T00:08:42.046Z,27.01
2017-04-06T00:09:01.350Z,27.05
2017-04-06T00:09:19.666Z,26.98
2017-04-06T00:09:38.983Z,26.99
2017-04-06T00:09:58.314Z,27.02
2017-04-06T00:10:17.647Z,27.05
2017-04-06T00:10:36.956Z,27.02
2017-04-06T00:10:56.250Z,27.04
2017-04-06T00:11:14.532Z,27.02
2017-04-06T00:11:33.864Z,27.08
2017-04-06T00:11:53.195Z,26.98
2017-04-06T00:12:12.635Z,27.01
2017-04-06T00:12:31.964Z,27.04
2017-04-06T00:12:51.274Z,26.98
2017-04-06T00:13:10.582Z,26.99
2017-04-06T00:13:29.892Z,27.02
2017-04-06T00:13:49.227Z,27.01
2017-04-06T00:14:08.551Z,26.99
2017-04-06T00:14:27.861Z,26.98
2017-04-06T00:14:46.675Z,27.08
2017-04-06T00:15:05.980Z,27.01
2017-04-06T00:15:25.324Z,27.01
2017-04-06T00:15:44.677Z,26.98
2017-04-06T00:16:04.032Z,27.08
2017-04-06T00:16:22.840Z,27.01
2017-04-06T00:16:42.135Z,27.04
2017-04-06T00:17:01.441Z,26.99
2017-04-06T00:17:20.756Z,26.99
2017-04-06T00:17:39.549Z,26.98
2017-04-06T00:17:57.816Z,26.95
2017-04-06T00:18:16.602Z,27.13
2017-04-06T00:18:35.914Z,26.98
2017-04-06T00:18:55.235Z,26.98
2017-04-06T00:19:14.572Z,27.09
2017-04-06T00:19:33.889Z,27.04
2017-04-06T00:19:53.215Z,27.05
2017-04-06T00:20:12.020Z,27.01
2017-04-06T00:20:30.809Z,27.08
2017-04-06T00:20:50.173Z,27.07
2017-04-06T00:21:09.498Z,27.14
2017-04-06T00:21:28.813Z,27.13
2017-04-06T00:21:48.100Z,26.99
2017-04-06T00:22:07.414Z,27.08
2017-04-06T00:22:26.737Z,27.05
2017-04-06T00:22:46.048Z,27.04
2017-04-06T00:23:05.396Z,26.99
2017-04-06T00:23:24.703Z,27.01
2017-04-06T00:23:44.033Z,26.99
2017-04-06T00:24:03.336Z,27.02
2017-04-06T00:24:22.637Z,26.95
2017-04-06T00:24:41.950Z,26.98
2017-04-06T00:25:01.263Z,26.87
2017-04-06T00:25:20.573Z,26.94
2017-04-06T00:25:39.908Z,26.89
2017-04-06T00:25:59.232Z,26.95
2017-04-06T00:26:18.558Z,26.92
2017-04-06T00:26:37.887Z,26.9
2017-04-06T00:26:57.221Z,26.86
2017-04-06T00:27:16.017Z,26.89
2017-04-06T00:27:34.799Z,26.92
2017-04-06T00:27:54.099Z,26.86
2017-04-06T00:28:13.455Z,26.79
2017-04-06T00:28:32.753Z,26.87
2017-04-06T00:28:52.062Z,26.87
2017-04-06T00:29:11.394Z,26.89
2017-04-06T00:29:30.721Z,26.84
2017-04-06T00:29:50.042Z,26.92
2017-04-06T00:30:09.349Z,26.9
2017-04-06T00:30:28.653Z,26.86
2017-04-06T00:30:47.995Z,26.89
2017-04-06T00:31:07.315Z,26.89
2017-04-06T00:31:26.627Z,26.9
2017-04-06T00:31:45.950Z,26.95
2017-04-06T00:32:05.283Z,27.02
2017-04-06T00:32:24.582Z,26.94
2017-04-06T00:32:43.895Z,26.99
2017-04-06T00:33:03.208Z,26.87
2017-04-06T00:33:22.513Z,26.9
2017-04-06T00:33:41.824Z,26.95
2017-04-06T00:34:01.115Z,27.01
2017-04-06T00:34:19.925Z,27.01
2017-04-06T00:34:39.235Z,27.02
2017-04-06T00:34:58.552Z,26.99
2017-04-06T00:35:17.890Z,27.01
2017-04-06T00:35:37.238Z,27.02
2017-04-06T00:35:56.559Z,26.97
2017-04-06T00:36:15.338Z,27.05
2017-04-06T00:36:34.645Z,27.12
2017-04-06T00:36:53.975Z,27.01
2017-04-06T00:37:46.077Z,27.09
2017-04-06T00:38:05.397Z,27.04
2017-04-06T00:38:24.705Z,27.08
2017-04-06T00:38:44.023Z,27.12
2017-04-06T00:39:03.352Z,27.14
2017-04-06T00:39:22.158Z,27.04
2017-04-06T00:39:41.464Z,27.17
2017-04-06T00:40:00.256Z,27.14
2017-04-06T00:40:19.068Z,27.08
2017-04-06T00:40:38.371Z,27.13
2017-04-06T00:40:57.174Z,27.04
2017-04-06T00:41:15.954Z,27.13
2017-04-06T00:41:37.227Z,27.16
2017-04-06T00:41:56.043Z,27.14
2017-04-06T00:42:15.334Z,27.13
2017-04-06T00:42:34.646Z,27.14
2017-04-06T00:42:53.964Z,27.02
2017-04-06T00:43:13.296Z,27.09
2017-04-06T00:43:32.600Z,27.08
2017-04-06T00:43:51.914Z,27.12
2017-04-06T00:44:11.235Z,27.17
2017-04-06T00:44:30.559Z,27.07
2017-04-06T00:44:49.894Z,27.13
2017-04-06T00:45:09.220Z,27.07
2017-04-06T00:45:28.070Z,27.07
2017-04-06T00:45:47.415Z,27.07
2017-04-06T00:46:06.728Z,27.08
2017-04-06T00:46:25.009Z,27.09
2017-04-06T00:46:44.331Z,27.02
2017-04-06T00:47:03.654Z,26.99
2017-04-06T00:47:22.944Z,27.12
2017-04-06T00:47:42.262Z,26.99
2017-04-06T00:48:01.556Z,26.99
2017-04-06T00:48:20.518Z,27.02
2017-04-06T00:48:39.866Z,27.09
2017-04-06T00:48:59.201Z,27.05
2017-04-06T00:49:18.511Z,27.09
2017-04-06T00:49:37.308Z,27.09
2017-04-06T00:49:56.640Z,27.05
2017-04-06T00:50:15.448Z,27.13
2017-04-06T00:50:34.757Z,27.07
2017-04-06T00:50:54.064Z,27.04
2017-04-06T00:51:12.867Z,27.09
2017-04-06T00:51:32.204Z,27.01
2017-04-06T00:51:51.524Z,27.13
2017-04-06T00:52:11.004Z,26.98
2017-04-06T00:52:29.830Z,27.01
2017-04-06T00:52:49.161Z,27.02
2017-04-06T00:53:08.492Z,26.99
2017-04-06T00:53:27.801Z,26.98
2017-04-06T00:53:47.147Z,27.02
2017-04-06T00:54:06.480Z,27.04
2017-04-06T00:54:25.828Z,27.02
2017-04-06T00:54:45.222Z,27.07
2017-04-06T00:55:04.580Z,27.14
2017-04-06T00:55:23.895Z,27.04
2017-04-06T00:55:43.225Z,27.05
2017-04-06T00:56:02.545Z,27.02
2017-04-06T00:56:21.342Z,27.05
2017-04-06T00:56:40.644Z,27.02
2017-04-06T00:56:59.931Z,27.05
2017-04-06T00:57:19.238Z,27.09
2017-04-06T00:57:38.554Z,27.05
2017-04-06T00:57:57.858Z,27.07
2017-04-06T00:58:16.137Z,27.02
2017-04-06T00:58:34.938Z,27.02
2017-04-06T00:58:54.292Z,27.02
2017-04-06T00:59:13.604Z,27.07
2017-04-06T00:59:31.919Z,27.05
2017-04-06T00:59:50.748Z,26.98
2017-04-06T01:00:09.542Z,27.04
2017-04-06T01:00:28.862Z,27.08
2017-04-06T01:00:48.138Z,27.12
2017-04-06T01:01:06.952Z,27.12
2017-04-06T01:01:26.275Z,27.07
2017-04-06T01:01:45.609Z,27.12
2017-04-06T01:02:05.018Z,27.08
2017-04-06T01:02:23.881Z,27.14
2017-04-06T01:02:43.250Z,27.07
2017-04-06T01:03:02.111Z,27.09
2017-04-06T01:03:21.533Z,27.07
2017-04-06T01:03:40.837Z,27.2
2017-04-06T01:04:00.187Z,27.2
2017-04-06T01:04:19.091Z,27.07
2017-04-06T01:04:37.894Z,27.05
2017-04-06T01:04:57.233Z,27.16
2017-04-06T01:05:16.067Z,27.14
2017-04-06T01:05:34.890Z,27.2
2017-04-06T01:05:54.216Z,27.21
2017-04-06T01:06:13.543Z,27.17
2017-04-06T01:06:32.873Z,27.13
2017-04-06T01:06:52.181Z,27.17
2017-04-06T01:07:11.484Z,27.09
2017-04-06T01:07:30.256Z,27.21
2017-04-06T01:07:49.570Z,27.16
2017-04-06T01:08:08.890Z,27.2
2017-04-06T01:08:28.229Z,27.09
2017-04-06T01:08:47.560Z,27.12
2017-04-06T01:09:06.911Z,27.05
2017-04-06T01:09:26.197Z,27.17
2017-04-06T01:09:45.501Z,27.09
2017-04-06T01:10:04.817Z,27.12
2017-04-06T01:10:23.629Z,27.08
2017-04-06T01:10:42.998Z,27.17
2017-04-06T01:11:02.305Z,27.26
2017-04-06T01:11:21.633Z,27.17
2017-04-06T01:11:40.425Z,27.24
2017-04-06T01:11:59.756Z,27.09
2017-04-06T01:12:18.562Z,27.08
2017-04-06T01:12:37.864Z,27.09
2017-04-06T01:12:57.177Z,27.17
2017-04-06T01:13:16.495Z,27.14
2017-04-06T01:13:35.829Z,27.07
2017-04-06T01:13:55.145Z,27.09
2017-04-06T01:14:14.455Z,27.09
2017-04-06T01:14:33.782Z,27.08
2017-04-06T01:14:53.102Z,27.13
2017-04-06T01:15:12.425Z,27.16
2017-04-06T01:15:31.743Z,27.16
2017-04-06T01:15:51.047Z,27.04
2017-04-06T01:16:09.849Z,27.08
2017-04-06T01:16:29.178Z,27.09
2017-04-06T01:16:48.481Z,27.09
2017-04-06T01:17:07.811Z,27.14
2017-04-06T01:17:26.608Z,27.13
2017-04-06T01:17:45.404Z,27.14
2017-04-06T01:18:04.748Z,27.05
2017-04-06T01:18:24.065Z,27.16
2017-04-06T01:18:42.886Z,27.07
2017-04-06T01:19:01.712Z,27.09
2017-04-06T01:19:21.028Z,27.08
2017-04-06T01:19:39.799Z,27.08
2017-04-06T01:19:59.125Z,27.13
2017-04-06T01:20:18.401Z,27.17
2017-04-06T01:20:37.714Z,27.08
2017-04-06T01:20:56.517Z,27.13
2017-04-06T01:21:15.832Z,27.09
2017-04-06T01:21:35.132Z,27.07
2017-04-06T01:21:53.957Z,27.09
2017-04-06T01:22:13.276Z,27.04
2017-04-06T01:22:32.592Z,27.01
2017-04-06T01:22:51.388Z,27.04
2017-04-06T01:23:10.693Z,26.99
2017-04-06T01:23:30.005Z,27.02
2017-04-06T01:23:49.341Z,27.02
2017-04-06T01:24:08.644Z,27.09
2017-04-06T01:24:27.931Z,26.97
2017-04-06T01:24:47.249Z,27.05
2017-04-06T01:25:06.552Z,27.13
2017-04-06T01:25:25.372Z,26.99
2017-04-06T01:25:44.713Z,26.97
2017-04-06T01:26:04.036Z,27.05
2017-04-06T01:26:23.343Z,26.98
2017-04-06T01:26:42.654Z,26.97
2017-04-06T01:27:02.073Z,26.95
2017-04-06T01:27:21.371Z,26.94
2017-04-06T01:27:40.186Z,26.94
2017-04-06T01:27:58.984Z,26.87
2017-04-06T01:28:17.780Z,26.86
2017-04-06T01:28:37.157Z,26.86
2017-04-06T01:28:56.501Z,26.75
2017-04-06T01:29:15.786Z,26.8
2017-04-06T01:29:35.089Z,26.79
2017-04-06T01:29:53.874Z,26.76
2017-04-06T01:30:13.171Z,26.72
2017-04-06T01:30:32.513Z,26.71
2017-04-06T01:30:51.324Z,26.75
2017-04-06T01:31:10.119Z,26.79
2017-04-06T01:31:29.446Z,26.82
2017-04-06T01:31:48.254Z,26.77
2017-04-06T01:32:07.552Z,26.79
2017-04-06T01:32:26.875Z,26.76
2017-04-06T01:32:46.191Z,26.79
2017-04-06T01:33:05.528Z,26.76
2017-04-06T01:33:24.849Z,26.75
2017-04-06T01:33:43.622Z,26.76
2017-04-06T01:34:02.954Z,26.67
2017-04-06T01:34:21.766Z,26.72
2017-04-06T01:34:41.082Z,26.76
2017-04-06T01:35:00.397Z,26.69
2017-04-06T01:35:19.190Z,26.8
2017-04-06T01:35:38.506Z,26.68
2017-04-06T01:35:57.280Z,26.76
2017-04-06T01:36:16.622Z,26.68
2017-04-06T01:36:35.416Z,26.69
2017-04-06T01:36:54.720Z,26.71
2017-04-06T01:37:14.068Z,26.72
2017-04-06T01:37:33.387Z,26.67
2017-04-06T01:37:52.718Z,26.6
2017-04-06T01:38:12.047Z,26.49
2017-04-06T01:38:31.389Z,26.61
2017-04-06T01:38:50.712Z,26.55
2017-04-06T01:39:10.055Z,26.62
2017-04-06T01:39:28.829Z,26.52
2017-04-06T01:39:48.131Z,26.62
2017-04-06T01:40:07.433Z,26.57
2017-04-06T01:40:26.756Z,26.58
2017-04-06T01:40:46.083Z,26.5
2017-04-06T01:41:04.886Z,26.57
2017-04-06T01:41:23.731Z,26.43
2017-04-06T01:41:43.055Z,26.39
2017-04-06T01:42:02.368Z,26.53
2017-04-06T01:42:21.720Z,26.43
2017-04-06T01:42:40.575Z,26.45
2017-04-06T01:42:59.896Z,26.43
2017-04-06T01:43:19.269Z,26.4
2017-04-06T01:43:38.617Z,26.45
2017-04-06T01:43:57.401Z,26.46
2017-04-06T01:44:16.741Z,26.42
2017-04-06T01:44:36.050Z,26.28
2017-04-06T01:44:55.426Z,26.28
2017-04-06T01:45:14.722Z,26.08
2017-04-06T01:45:34.006Z,26.18
2017-04-06T01:45:53.362Z,26.18
2017-04-06T01:46:12.283Z,26.2
2017-04-06T01:46:31.640Z,26.15
2017-04-06T01:46:50.958Z,26.09
2017-04-06T01:47:10.417Z,26.02
2017-04-06T01:47:29.728Z,26.01
2017-04-06T01:47:49.023Z,26.02
2017-04-06T01:48:08.339Z,26.04
2017-04-06T01:48:27.680Z,25.96
2017-04-06T01:48:47.030Z,25.99
2017-04-06T01:49:06.317Z,25.94
2017-04-06T01:49:25.661Z,25.9
2017-04-06T01:49:44.967Z,25.93
2017-04-06T01:50:03.774Z,25.94
2017-04-06T01:50:23.092Z,25.96
2017-04-06T01:50:42.402Z,25.9
2017-04-06T01:51:00.168Z,25.94
2017-04-06T01:51:18.939Z,25.87
2017-04-06T01:51:37.721Z,25.96
2017-04-06T01:51:57.329Z,25.96
2017-04-06T01:52:15.611Z,26.01
2017-04-06T01:52:34.942Z,25.94
2017-04-06T01:52:54.230Z,25.86
2017-04-06T01:53:13.529Z,25.82
2017-04-06T01:53:32.835Z,25.79
2017-04-06T01:53:52.148Z,25.7
2017-04-06T01:54:11.453Z,25.53
2017-04-06T01:54:30.770Z,25.67
2017-04-06T01:54:50.094Z,25.7
2017-04-06T01:55:08.915Z,25.7
2017-04-06T01:55:28.195Z,25.68
2017-04-06T01:55:47.516Z,25.64
2017-04-06T01:56:06.316Z,25.67
2017-04-06T01:56:25.704Z,25.64
2017-04-06T01:56:45.573Z,25.56
2017-04-06T01:57:04.457Z,25.55
2017-04-06T01:57:23.878Z,25.64
2017-04-06T01:57:43.253Z,25.56
2017-04-06T01:58:02.042Z,25.67
2017-04-06T01:58:21.520Z,25.64
2017-04-06T01:58:40.381Z,25.65
2017-04-06T01:58:59.667Z,25.59
2017-04-06T01:59:18.980Z,25.55
2017-04-06T01:59:38.272Z,25.53
2017-04-06T01:59:57.059Z,25.53
2017-04-06T02:00:16.362Z,25.52
2017-04-06T02:00:35.683Z,25.53
2017-04-06T02:00:54.985Z,25.5
2017-04-06T02:01:14.351Z,25.5
2017-04-06T02:01:33.663Z,25.53
2017-04-06T02:01:53.051Z,25.5
2017-04-06T02:02:12.343Z,25.47
2017-04-06T02:02:31.660Z,25.34
2017-04-06T02:02:50.952Z,25.35
2017-04-06T02:03:09.733Z,25.31
2017-04-06T02:03:29.046Z,25.3
2017-04-06T02:03:48.488Z,25.25
2017-04-06T02:04:07.827Z,25.2
2017-04-06T02:04:27.132Z,25.27
2017-04-06T02:04:45.937Z,25.28
2017-04-06T02:05:05.267Z,25.3
2017-04-06T02:05:24.058Z,25.25
2017-04-06T02:05:43.341Z,25.25
2017-04-06T02:06:02.667Z,25.27
2017-04-06T02:06:22.016Z,25.28
2017-04-06T02:06:41.352Z,25.19
2017-04-06T02:07:00.697Z,25.22
2017-04-06T02:07:20.016Z,25.25
2017-04-06T02:07:39.346Z,25.2
2017-04-06T02:07:58.654Z,25.17
2017-04-06T02:08:17.441Z,25.1
2017-04-06T02:08:36.260Z,25.08
2017-04-06T02:08:55.564Z,25.01
2017-04-06T02:09:14.907Z,25.08
2017-04-06T02:09:33.696Z,25.1
2017-04-06T02:09:53.017Z,25.12
2017-04-06T02:10:11.830Z,25.15
2017-04-06T02:10:30.732Z,25.05
2017-04-06T02:10:50.036Z,25.02
2017-04-06T02:11:09.394Z,25.04
2017-04-06T02:11:28.708Z,25.02
2017-04-06T02:11:48.019Z,25
2017-04-06T02:12:06.808Z,25.1
2017-04-06T02:12:25.611Z,25.01
2017-04-06T02:12:44.958Z,25.1
2017-04-06T02:13:04.262Z,25.08
2017-04-06T02:13:23.564Z,25.08
2017-04-06T02:13:42.897Z,24.98
2017-04-06T02:14:02.224Z,25.1
2017-04-06T02:14:21.590Z,25.04
2017-04-06T02:14:40.417Z,25.09
2017-04-06T02:14:59.721Z,25.01
2017-04-06T02:15:18.520Z,25.12
2017-04-06T02:15:37.836Z,25.15
2017-04-06T02:15:57.162Z,25.08
2017-04-06T02:16:16.479Z,25.1
2017-04-06T02:16:35.811Z,25.08
2017-04-06T02:16:55.178Z,25.08
2017-04-06T02:17:14.503Z,25.12
2017-04-06T02:17:33.806Z,25.1
2017-04-06T02:17:53.118Z,25.08
2017-04-06T02:18:11.457Z,25.1
2017-04-06T02:18:30.800Z,24.94
2017-04-06T02:18:50.108Z,25.12
2017-04-06T02:19:08.929Z,25.02
2017-04-06T02:19:28.251Z,24.98
2017-04-06T02:19:47.580Z,25.01
2017-04-06T02:20:06.893Z,24.97
2017-04-06T02:20:26.231Z,24.94
2017-04-06T02:20:45.569Z,24.86
2017-04-06T02:21:04.894Z,24.88
2017-04-06T02:21:24.390Z,24.9
2017-04-06T02:21:43.767Z,24.82
2017-04-06T02:22:03.068Z,24.88
2017-04-06T02:22:21.985Z,24.82
2017-04-06T02:22:41.433Z,24.71
2017-04-06T02:23:00.739Z,24.76
2017-04-06T02:23:20.101Z,24.75
2017-04-06T02:23:39.427Z,24.69
2017-04-06T02:23:58.206Z,24.78
2017-04-06T02:24:17.659Z,24.76
2017-04-06T02:24:37.513Z,24.59
2017-04-06T02:24:56.821Z,24.54
2017-04-06T02:25:16.121Z,24.56
2017-04-06T02:25:34.900Z,24.62
2017-04-06T02:25:54.278Z,24.56
2017-04-06T02:26:13.686Z,24.59
2017-04-06T02:26:33.171Z,24.59
2017-04-06T02:26:51.978Z,24.59
2017-04-06T02:27:11.298Z,24.44
2017-04-06T02:27:30.127Z,24.42
2017-04-06T02:27:49.410Z,24.47
2017-04-06T02:28:08.739Z,24.42
2017-04-06T02:28:28.230Z,24.48
2017-04-06T02:28:47.110Z,24.53
2017-04-06T02:29:06.488Z,24.44
2017-04-06T02:29:25.787Z,24.48
2017-04-06T02:29:45.072Z,24.56
2017-04-06T02:30:04.390Z,24.38
2017-04-06T02:30:24.161Z,24.42
2017-04-06T02:30:43.686Z,24.54
2017-04-06T02:31:03.009Z,24.57
2017-04-06T02:31:22.381Z,24.56
2017-04-06T02:31:41.199Z,24.56
2017-04-06T02:32:00.505Z,24.54
2017-04-06T02:32:19.511Z,24.54
2017-04-06T02:32:38.947Z,24.52
2017-04-06T02:32:58.283Z,24.44
2017-04-06T02:33:17.615Z,24.47
2017-04-06T02:33:36.935Z,24.56
2017-04-06T02:33:56.248Z,24.56
2017-04-06T02:34:15.620Z,24.6
2017-04-06T02:34:35.037Z,24.48
2017-04-06T02:34:53.838Z,24.47
2017-04-06T02:35:12.639Z,24.54
2017-04-06T02:35:31.948Z,24.57
2017-04-06T02:35:51.408Z,24.44
2017-04-06T02:36:11.347Z,24.52
2017-04-06T02:36:30.808Z,24.48
2017-04-06T02:36:50.119Z,24.42
2017-04-06T02:37:09.427Z,24.41
2017-04-06T02:37:28.823Z,24.42
2017-04-06T02:37:48.128Z,24.52
2017-04-06T02:38:07.467Z,24.44
2017-04-06T02:38:26.828Z,24.42
2017-04-06T02:38:46.243Z,24.48
2017-04-06T02:39:05.569Z,24.53
2017-04-06T02:39:24.359Z,24.44
2017-04-06T02:39:43.166Z,24.42
2017-04-06T02:40:02.561Z,24.48
2017-04-06T02:40:21.952Z,24.48
2017-04-06T02:40:41.588Z,24.56
2017-04-06T02:41:00.409Z,24.53
2017-04-06T02:41:19.853Z,24.48
2017-04-06T02:41:38.665Z,24.59
2017-04-06T02:41:58.028Z,24.64
2017-04-06T02:42:16.989Z,24.71
2017-04-06T02:42:36.467Z,24.59
2017-04-06T02:42:55.787Z,24.69
2017-04-06T02:43:15.260Z,24.66
2017-04-06T02:43:34.610Z,24.69
2017-04-06T02:43:53.968Z,24.62
2017-04-06T02:44:13.370Z,24.69
2017-04-06T02:44:32.805Z,24.62
2017-04-06T02:44:52.116Z,24.76
2017-04-06T02:45:11.415Z,24.67
2017-04-06T02:45:30.722Z,24.79
2017-04-06T02:45:50.038Z,24.76
2017-04-06T02:46:09.392Z,24.78
2017-04-06T02:46:28.817Z,24.71
2017-04-06T02:46:48.218Z,24.69
2017-04-06T02:47:07.544Z,24.73
2017-04-06T02:47:26.871Z,24.47
2017-04-06T02:47:46.182Z,24.44
2017-04-06T02:48:05.497Z,24.56
2017-04-06T02:48:24.363Z,24.45
2017-04-06T02:48:43.203Z,24.56
2017-04-06T02:49:01.996Z,24.57
2017-04-06T02:49:21.295Z,24.63
2017-04-06T02:49:40.616Z,24.62
2017-04-06T02:49:59.431Z,24.67
2017-04-06T02:50:18.886Z,24.71
2017-04-06T02:50:38.316Z,24.69
2017-04-06T02:50:57.611Z,24.64
2017-04-06T02:51:16.930Z,24.69
2017-04-06T02:51:36.245Z,24.73
2017-04-06T02:51:55.767Z,24.78
2017-04-06T02:52:14.654Z,24.75
2017-04-06T02:52:34.190Z,24.75
2017-04-06T02:52:53.491Z,24.71
2017-04-06T02:53:12.792Z,24.71
2017-04-06T02:53:32.124Z,24.8
2017-04-06T02:53:51.475Z,24.76
2017-04-06T02:54:10.823Z,24.66
2017-04-06T02:54:30.357Z,24.73
2017-04-06T02:54:49.697Z,24.57
2017-04-06T02:55:09.000Z,24.57
2017-04-06T02:55:27.846Z,24.56
2017-04-06T02:55:47.142Z,24.48
2017-04-06T02:56:06.500Z,24.41
2017-04-06T02:56:25.630Z,24.4
2017-04-06T02:56:45.124Z,24.42
2017-04-06T02:57:04.592Z,24.42
2017-04-06T02:57:23.996Z,24.37
2017-04-06T02:57:43.779Z,24.32
2017-04-06T02:58:03.104Z,24.29
2017-04-06T02:58:22.897Z,24.29
2017-04-06T02:58:42.602Z,24.42
2017-04-06T02:59:01.456Z,24.41
2017-04-06T02:59:20.760Z,24.29
2017-04-06T02:59:40.168Z,24.26
2017-04-06T02:59:58.679Z,24.34
2017-04-06T03:00:18.334Z,24.3
2017-04-06T03:00:37.229Z,24.27
2017-04-06T03:00:56.586Z,24.17
2017-04-06T03:01:15.910Z,24.17
2017-04-06T03:01:34.775Z,24.15
2017-04-06T03:01:53.971Z,24.12
2017-04-06T03:02:12.839Z,24.11
2017-04-06T03:02:31.826Z,24.2
2017-04-06T03:02:51.143Z,24.2
2017-04-06T03:03:10.455Z,24.16
2017-04-06T03:03:29.761Z,24.17
2017-04-06T03:03:48.554Z,24.16
2017-04-06T03:04:07.971Z,24.23
2017-04-06T03:04:27.560Z,24.15
2017-04-06T03:04:46.892Z,24.27
2017-04-06T03:05:06.229Z,24.11
2017-04-06T03:05:25.538Z,24.12
2017-04-06T03:05:44.884Z,24.08
2017-04-06T03:06:04.217Z,24.08
2017-04-06T03:06:23.176Z,24.04
2017-04-06T03:06:42.594Z,24.2
2017-04-06T03:07:01.929Z,24.11
2017-04-06T03:07:21.272Z,24.1
2017-04-06T03:07:40.607Z,24.15
2017-04-06T03:07:59.906Z,24.15
2017-04-06T03:08:19.470Z,24.17
2017-04-06T03:08:38.985Z,24.22
2017-04-06T03:08:58.263Z,24.2
2017-04-06T03:09:17.567Z,24.23
2017-04-06T03:09:36.361Z,24.2
2017-04-06T03:09:55.160Z,24.19
2017-04-06T03:10:14.617Z,24.22
2017-04-06T03:10:33.623Z,24.2
2017-04-06T03:10:53.107Z,24.22
2017-04-06T03:11:12.504Z,24.22
2017-04-06T03:11:31.820Z,24.2
2017-04-06T03:11:50.611Z,24.27
2017-04-06T03:12:10.097Z,24.2
2017-04-06T03:12:29.247Z,24.25
2017-04-06T03:12:48.698Z,24.2
2017-04-06T03:13:08.262Z,24.25
2017-04-06T03:13:27.076Z,24.17
2017-04-06T03:13:46.484Z,24.26
2017-04-06T03:14:19.880Z,24.19
2017-04-06T03:14:39.486Z,24.22
2017-04-06T03:14:58.823Z,24.23
2017-04-06T03:15:18.234Z,24.29
2017-04-06T03:15:37.530Z,24.32
2017-04-06T03:15:56.852Z,24.34
2017-04-06T03:16:16.376Z,24.25
2017-04-06T03:16:35.503Z,24.35
2017-04-06T03:16:54.392Z,24.3
2017-04-06T03:17:13.197Z,24.32
2017-04-06T03:17:32.514Z,24.2
2017-04-06T03:17:51.373Z,24.29
2017-04-06T03:18:09.784Z,24.17
2017-04-06T03:18:29.547Z,24.19
2017-04-06T03:18:48.436Z,24.16
2017-04-06T03:19:07.770Z,24.15
2017-04-06T03:19:26.578Z,24.16
2017-04-06T03:19:45.901Z,24.19
2017-04-06T03:20:04.749Z,24.08
2017-04-06T03:20:24.279Z,24.1
2017-04-06T03:20:43.725Z,24.04
2017-04-06T03:21:03.042Z,24.07
2017-04-06T03:21:22.348Z,24.01
2017-04-06T03:21:41.656Z,24
2017-04-06T03:22:00.995Z,23.97
2017-04-06T03:22:20.621Z,23.97
2017-04-06T03:22:40.174Z,24.04
2017-04-06T03:22:59.508Z,23.98
2017-04-06T03:23:18.799Z,24.02
2017-04-06T03:23:38.101Z,24.12
2017-04-06T03:23:57.405Z,24.08
2017-04-06T03:24:16.356Z,24.04
2017-04-06T03:24:35.891Z,24.07
2017-04-06T03:24:55.181Z,24.11
2017-04-06T03:25:13.450Z,24.04
2017-04-06T03:25:32.254Z,24.08
2017-04-06T03:25:51.576Z,24.02
2017-04-06T03:26:10.936Z,24.08
2017-04-06T03:26:30.513Z,24.11
2017-04-06T03:26:49.874Z,24.1
2017-04-06T03:27:08.671Z,23.98
2017-04-06T03:27:27.996Z,24.01
2017-04-06T03:27:47.298Z,24.02
2017-04-06T03:28:06.656Z,24.08
2017-04-06T03:28:25.832Z,24.05
2017-04-06T03:28:45.315Z,24
2017-04-06T03:29:04.618Z,24.08
2017-04-06T03:29:23.664Z,24.04
2017-04-06T03:29:43.039Z,24.04
2017-04-06T03:30:02.378Z,24.02
2017-04-06T03:30:22.013Z,24.05
2017-04-06T03:30:41.488Z,23.92
2017-04-06T03:31:00.827Z,24.01
2017-04-06T03:31:20.179Z,24.12
2017-04-06T03:31:39.536Z,24.05
2017-04-06T03:31:58.897Z,24
2017-04-06T03:32:18.549Z,24.12
2017-04-06T03:32:37.585Z,24.11
2017-04-06T03:32:56.901Z,24.2
2017-04-06T03:33:15.720Z,24.32
2017-04-06T03:33:35.025Z,24.3
2017-04-06T03:33:54.321Z,24.37
2017-04-06T03:34:13.731Z,24.42
2017-04-06T03:34:33.341Z,24.42
2017-04-06T03:34:52.684Z,24.5
2017-04-06T03:35:11.994Z,24.44
2017-04-06T03:35:31.319Z,24.47
2017-04-06T03:35:50.645Z,24.53
2017-04-06T03:36:10.049Z,24.6
2017-04-06T03:36:29.718Z,24.62
2017-04-06T03:36:48.743Z,24.63
2017-04-06T03:37:08.048Z,24.64
2017-04-06T03:37:27.379Z,24.63
2017-04-06T03:37:46.189Z,24.63
2017-04-06T03:38:05.519Z,24.63
2017-04-06T03:38:25.142Z,24.71
2017-04-06T03:38:44.544Z,24.64
2017-04-06T03:39:03.869Z,24.71
2017-04-06T03:39:23.194Z,24.63
2017-04-06T03:39:42.522Z,24.6
2017-04-06T03:40:01.852Z,24.56
2017-04-06T03:40:21.889Z,24.54
2017-04-06T03:40:41.385Z,24.59
2017-04-06T03:41:00.731Z,24.59
2017-04-06T03:41:20.043Z,24.5
2017-04-06T03:41:39.367Z,24.56
2017-04-06T03:41:58.871Z,24.57
2017-04-06T03:42:18.391Z,24.5
2017-04-06T03:42:37.408Z,24.6
2017-04-06T03:42:56.730Z,24.57
2017-04-06T03:43:16.027Z,24.53
2017-04-06T03:43:35.336Z,24.47
2017-04-06T03:43:54.668Z,24.54
2017-04-06T03:44:14.122Z,24.44
2017-04-06T03:44:33.205Z,24.53
2017-04-06T03:44:52.545Z,24.54
2017-04-06T03:45:11.839Z,24.48
2017-04-06T03:45:31.155Z,24.48
2017-04-06T03:45:50.486Z,24.45
2017-04-06T03:46:09.331Z,24.41
2017-04-06T03:46:28.899Z,24.38
2017-04-06T03:46:48.259Z,24.32
2017-04-06T03:47:07.576Z,24.34
2017-04-06T03:47:26.382Z,24.37
2017-04-06T03:47:45.687Z,24.3
2017-04-06T03:48:05.053Z,24.29
2017-04-06T03:48:24.038Z,24.4
2017-04-06T03:48:43.440Z,24.41
2017-04-06T03:49:02.264Z,24.38
2017-04-06T03:49:21.570Z,24.42
2017-04-06T03:49:40.869Z,24.42
2017-04-06T03:50:00.177Z,24.42
2017-04-06T03:50:19.585Z,24.48
2017-04-06T03:50:38.977Z,24.54
2017-04-06T03:50:57.782Z,24.48
2017-04-06T03:51:17.090Z,24.6
2017-04-06T03:51:35.885Z,24.47
2017-04-06T03:51:55.275Z,24.56
2017-04-06T03:52:14.725Z,24.52
2017-04-06T03:52:34.211Z,24.41
2017-04-06T03:52:53.541Z,24.45
2017-04-06T03:53:12.883Z,24.47
2017-04-06T03:53:32.195Z,24.48
2017-04-06T03:53:51.493Z,24.45
2017-04-06T03:54:10.942Z,24.44
2017-04-06T03:54:29.468Z,24.44
2017-04-06T03:54:48.309Z,24.47
2017-04-06T03:55:07.625Z,24.47
2017-04-06T03:55:26.913Z,24.38
2017-04-06T03:55:46.214Z,24.37
2017-04-06T03:56:05.550Z,24.38
2017-04-06T03:56:25.090Z,24.37
2017-04-06T03:56:44.552Z,24.35
2017-04-06T03:57:03.852Z,24.32
2017-04-06T03:57:23.181Z,24.34
2017-04-06T03:57:41.946Z,24.29
2017-04-06T03:58:01.242Z,24.26
2017-04-06T03:58:20.815Z,24.3
2017-04-06T03:58:40.310Z,24.34
2017-04-06T03:58:59.628Z,24.34
2017-04-06T03:59:18.430Z,24.32
2017-04-06T03:59:37.745Z,24.27
2017-04-06T03:59:57.077Z,24.34
2017-04-06T04:00:16.642Z,24.29
2017-04-06T04:00:36.430Z,24.23
2017-04-06T04:00:55.739Z,24.19
2017-04-06T04:01:15.063Z,24.26
2017-04-06T04:01:34.396Z,24.26
2017-04-06T04:01:53.834Z,24.2
2017-04-06T04:02:13.277Z,24.27
2017-04-06T04:02:32.930Z,24.26
2017-04-06T04:02:52.233Z,24.25
2017-04-06T04:03:11.528Z,24.32
2017-04-06T04:03:30.321Z,24.32
2017-04-06T04:03:49.637Z,24.23
2017-04-06T04:04:09.016Z,24.23
2017-04-06T04:04:28.596Z,24.19
2017-04-06T04:04:47.986Z,24.2
2017-04-06T04:05:07.294Z,24.25
2017-04-06T04:05:26.602Z,24.17
2017-04-06T04:05:45.384Z,24.17
2017-04-06T04:06:04.686Z,24.29
2017-04-06T04:06:24.075Z,24.26
2017-04-06T04:06:43.395Z,24.23
2017-04-06T04:07:02.725Z,24.23
2017-04-06T04:07:22.040Z,24.19
2017-04-06T04:07:41.344Z,24.11
2017-04-06T04:08:00.135Z,24.11
2017-04-06T04:08:19.637Z,24.1
2017-04-06T04:08:39.111Z,24.1
2017-04-06T04:08:57.891Z,24.11
2017-04-06T04:09:17.207Z,24.05